Portada
METAR-TAF:

METAR-TAF

Aeropuertos :

Base Aérea de Almagro

Almagro, España

latitud: 38-57-11N, longitud: 3-44-29W, altitud: 629 m

Observación

El informe se hizo hace 13 horas y 58 minutos, a las 18:00 UTC
Viento 11 kt del este-noreste, variando entre norte-noreste y este-sureste
Temperatura 23°C
Humedad 33%
Presión 1013 hPa
Visibilidad 10 km o más
Nubes dispersas a una altura de 4000 ft

METAR: LEAO 241800Z 07011KT 020V110 9999 SCT040 23/06 Q1013

Hora: 09:58 (07:58 UTC)

Pronóstico

El informe se hizo hace 2 horas y 58 minutos, a las 05:00 UTC
Pronóstico válido del 25 a las 06 UTC al 25 a las 15 UTC
Viento 6 kt del norte
Visibilidad 10 km o más
sin nubes por debajo de 1500 m y sin presencia de cumulonimbus.
Probabilidad 40% :
Temporalmente
del 25 a las 11 UTC al 25 a las 15 UTC
Viento 15 kt del noreste con ráfagas de 25 kt

TAF: LEAO 250500Z 2506/2515 35006KT CAVOK PROB40 TEMPO 2511/2515 04015G25KT

Observaciones y pronósticos meteorológicos de más de 4000 aeropuertos (mensajes METAR y TAF).

Los puntos amarillos y rojos representan las estaciones disponibles.

Ponga el ratón en el punto deseado para ver el nombre de la estación.

Haga clic para ver las observaciones y los pronósticos meteorológicos.

Para cambiar el mapa : haga clic en los botones verdes con una cruz de color negro para hacer un zoom, en el botón verde con un guión para alejar o en las flechas verdes para mapas adyacentes.


METAR-TAF: